createdAt,value
2022-08-23T00:02:05.476Z,2.88
2022-08-23T00:04:53.244Z,2.88
2022-08-23T00:07:34.108Z,3.28
2022-08-23T00:10:04.853Z,2.42
2022-08-23T00:12:32.093Z,3.00
2022-08-23T00:15:01.696Z,2.97
2022-08-23T00:17:34.307Z,2.72
2022-08-23T00:20:08.013Z,3.83
2022-08-23T00:22:36.567Z,3.03
2022-08-23T00:25:10.381Z,3.70
2022-08-23T00:27:37.898Z,3.55
2022-08-23T00:30:09.692Z,3.33
2022-08-23T00:32:39.751Z,4.05
2022-08-23T00:35:10.167Z,3.83
2022-08-23T00:37:38.445Z,3.60
2022-08-23T00:40:11.476Z,3.17
2022-08-23T00:43:11.105Z,3.67
2022-08-23T00:46:05.140Z,3.97
2022-08-23T00:51:15.677Z,3.88
2022-08-23T00:53:53.450Z,3.58
2022-08-23T00:56:23.220Z,4.07
2022-08-23T00:58:51.439Z,4.13
2022-08-23T01:01:19.580Z,4.03
2022-08-23T01:04:03.016Z,4.60
2022-08-23T01:06:35.220Z,4.00
2022-08-23T01:09:11.879Z,4.53
2022-08-23T01:12:07.298Z,3.95
2022-08-23T01:14:42.162Z,3.63
2022-08-23T01:17:41.299Z,3.88
2022-08-23T01:20:17.751Z,4.38
2022-08-23T01:22:58.123Z,4.28
2022-08-23T01:25:28.977Z,4.70
2022-08-23T01:27:57.346Z,4.32
2022-08-23T01:30:28.506Z,4.50
2022-08-23T01:33:01.212Z,4.07
2022-08-23T01:35:42.269Z,4.57
2022-08-23T01:38:11.754Z,4.53
2022-08-23T01:40:41.771Z,3.70
2022-08-23T01:43:12.870Z,3.60
2022-08-23T01:45:41.718Z,3.83
2022-08-23T01:48:09.147Z,4.43
2022-08-23T01:50:39.128Z,4.47
2022-08-23T01:53:08.461Z,3.70
2022-08-23T01:55:36.511Z,4.75
2022-08-23T01:58:05.975Z,4.15
2022-08-23T02:00:36.368Z,4.47
2022-08-23T02:03:08.968Z,5.32
2022-08-23T02:05:37.365Z,5.13
2022-08-23T02:08:24.804Z,4.15
2022-08-23T02:10:52.671Z,4.82
2022-08-23T02:13:20.233Z,5.25
2022-08-23T02:15:51.355Z,5.30
2022-08-23T02:18:21.909Z,5.13
2022-08-23T02:20:54.065Z,5.18
2022-08-23T02:23:24.666Z,5.10
2022-08-23T02:25:54.766Z,5.15
2022-08-23T02:28:23.574Z,4.72
2022-08-23T02:30:52.018Z,4.93
2022-08-23T02:33:24.523Z,5.20
2022-08-23T02:35:51.797Z,6.00
2022-08-23T02:38:19.483Z,5.25
2022-08-23T02:40:48.315Z,6.38
2022-08-23T02:43:20.365Z,5.97
2022-08-23T02:45:50.545Z,5.88
2022-08-23T02:48:17.838Z,6.00
2022-08-23T02:50:45.120Z,5.68
2022-08-23T02:53:15.676Z,6.15
2022-08-23T02:55:47.897Z,5.38
2022-08-23T02:58:15.685Z,5.80
2022-08-23T03:00:49.900Z,5.97
2022-08-23T03:03:18.277Z,5.72
2022-08-23T03:05:45.923Z,6.03
2022-08-23T03:08:13.589Z,6.20
2022-08-23T03:10:51.124Z,5.80
2022-08-23T03:13:20.354Z,5.80
2022-08-23T03:15:48.153Z,6.07
2022-08-23T03:18:15.895Z,6.60
2022-08-23T03:20:43.713Z,6.82
2022-08-23T03:23:11.675Z,6.20
2022-08-23T03:25:39.953Z,6.68
2022-08-23T03:28:08.738Z,5.78
2022-08-23T03:30:38.624Z,6.38
2022-08-23T03:33:06.090Z,5.72
2022-08-23T03:35:35.763Z,5.65
2022-08-23T03:38:03.235Z,5.50
2022-08-23T03:40:35.659Z,5.63
2022-08-23T03:43:03.843Z,4.97
2022-08-23T03:45:31.326Z,5.43
2022-08-23T03:47:58.854Z,4.80
2022-08-23T03:50:26.292Z,4.82
2022-08-23T03:52:54.017Z,5.30
2022-08-23T03:55:21.461Z,5.45
2022-08-23T03:57:49.124Z,5.28
2022-08-23T04:00:20.458Z,5.15
2022-08-23T04:02:48.502Z,4.93
2022-08-23T04:05:18.276Z,5.10
2022-08-23T04:07:45.603Z,5.00
2022-08-23T04:10:15.160Z,5.18
2022-08-23T04:12:42.792Z,4.70
2022-08-23T04:15:11.837Z,5.10
2022-08-23T04:17:40.612Z,4.43
2022-08-23T04:20:08.630Z,4.65
2022-08-23T04:22:38.006Z,4.45
2022-08-23T04:25:14.094Z,4.72
2022-08-23T04:27:53.828Z,4.65
2022-08-23T04:30:21.602Z,4.38
2022-08-23T04:32:49.523Z,4.82
2022-08-23T04:35:19.473Z,4.78
2022-08-23T04:37:49.573Z,4.55
2022-08-23T04:40:35.608Z,5.13
2022-08-23T04:43:03.801Z,4.57
2022-08-23T04:45:32.572Z,4.90
2022-08-23T04:48:00.459Z,4.57
2022-08-23T04:50:27.807Z,4.35
2022-08-23T04:52:55.612Z,4.15
2022-08-23T04:55:22.907Z,4.75
2022-08-23T04:57:50.271Z,4.63
2022-08-23T05:00:22.463Z,4.68
2022-08-23T05:02:55.513Z,4.50
2022-08-23T05:05:23.716Z,4.40
2022-08-23T05:07:53.852Z,4.40
2022-08-23T05:10:22.917Z,4.57
2022-08-23T05:12:50.868Z,4.85
2022-08-23T05:15:18.216Z,4.22
2022-08-23T05:17:45.936Z,4.15
2022-08-23T05:20:13.725Z,4.43
2022-08-23T05:22:42.172Z,4.45
2022-08-23T05:25:11.731Z,4.43
2022-08-23T05:27:44.161Z,3.75
2022-08-23T05:30:15.440Z,4.28
2022-08-23T05:32:43.478Z,3.90
2022-08-23T05:35:10.731Z,4.63
2022-08-23T05:37:40.533Z,4.13
2022-08-23T05:40:08.910Z,4.15
2022-08-23T05:42:39.242Z,4.28
2022-08-23T05:45:10.427Z,3.80
2022-08-23T05:47:37.891Z,3.80
2022-08-23T05:50:10.936Z,3.83
2022-08-23T05:52:41.683Z,4.13
2022-08-23T05:55:09.627Z,4.30
2022-08-23T05:57:38.769Z,4.50
2022-08-23T06:00:09.878Z,4.32
2022-08-23T06:02:37.819Z,3.95
2022-08-23T06:05:05.587Z,4.22
2022-08-23T06:07:38.665Z,4.35
2022-08-23T06:10:06.619Z,4.47
2022-08-23T06:12:34.860Z,4.35
2022-08-23T06:15:02.716Z,4.43
2022-08-23T06:17:32.747Z,4.72
2022-08-23T06:20:00.047Z,5.45
2022-08-23T06:22:27.815Z,5.63
2022-08-23T06:24:55.568Z,5.10
2022-08-23T06:27:23.342Z,5.00
2022-08-23T06:29:51.044Z,5.13
2022-08-23T06:32:20.827Z,5.20
2022-08-23T06:34:48.086Z,5.50
2022-08-23T06:37:15.904Z,5.93
2022-08-23T06:39:43.675Z,5.80
2022-08-23T06:42:37.401Z,5.75
2022-08-23T06:45:04.777Z,5.93
2022-08-23T06:47:32.091Z,5.43
2022-08-23T06:50:01.941Z,6.50
2022-08-23T06:52:29.731Z,6.93
2022-08-23T06:54:58.006Z,5.63
2022-08-23T06:57:28.116Z,5.82
2022-08-23T06:59:57.762Z,6.18
2022-08-23T07:02:25.197Z,5.30
2022-08-23T07:04:55.632Z,4.57
2022-08-23T07:07:23.359Z,5.03
2022-08-23T07:09:50.770Z,4.50
2022-08-23T07:12:20.956Z,4.43
2022-08-23T07:14:49.331Z,4.38
2022-08-23T07:17:16.747Z,4.20
2022-08-23T07:19:47.097Z,4.18
2022-08-23T07:22:15.714Z,3.92
2022-08-23T07:24:43.594Z,3.45
2022-08-23T07:27:11.439Z,3.15
2022-08-23T07:29:39.771Z,3.40
2022-08-23T07:32:10.565Z,3.00
2022-08-23T07:34:40.713Z,2.85
2022-08-23T07:37:11.238Z,3.10
2022-08-23T07:39:43.861Z,3.05
2022-08-23T07:42:22.571Z,2.90
2022-08-23T07:44:53.507Z,2.83
2022-08-23T07:47:22.328Z,3.13
2022-08-23T07:49:50.465Z,2.72
2022-08-23T07:52:18.143Z,2.17
2022-08-23T07:54:48.558Z,2.42
2022-08-23T07:57:20.678Z,2.45
2022-08-23T07:59:49.706Z,2.58
2022-08-23T08:02:17.074Z,2.30
2022-08-23T08:04:45.419Z,2.25
2022-08-23T08:07:21.107Z,1.95
2022-08-23T08:09:49.269Z,1.90
2022-08-23T08:12:17.653Z,1.60
2022-08-23T08:14:48.573Z,1.50
2022-08-23T08:17:18.296Z,1.63
2022-08-23T08:19:46.988Z,1.20
2022-08-23T08:22:14.832Z,1.05
2022-08-23T08:24:45.181Z,1.10
2022-08-23T08:27:12.474Z,1.10
2022-08-23T08:29:40.430Z,1.30
2022-08-23T08:32:09.072Z,1.17
2022-08-23T08:34:42.155Z,1.13
2022-08-23T08:37:12.077Z,0.98
2022-08-23T08:39:45.552Z,0.73
2022-08-23T08:42:41.583Z,0.90
2022-08-23T08:45:18.897Z,0.77
2022-08-23T08:48:03.663Z,1.15
2022-08-23T08:50:43.694Z,0.95
2022-08-23T08:53:34.803Z,1.02
2022-08-23T08:56:12.667Z,1.20
2022-08-23T08:58:55.825Z,0.93
2022-08-23T09:01:28.098Z,1.10
2022-08-23T09:03:57.464Z,1.13
2022-08-23T09:07:02.944Z,1.02
2022-08-23T09:10:06.420Z,1.02
2022-08-23T09:13:15.307Z,0.98
2022-08-23T09:15:58.845Z,0.80
2022-08-23T09:18:26.850Z,1.08
2022-08-23T09:20:56.524Z,0.80
2022-08-23T09:23:29.491Z,0.95
2022-08-23T09:28:36.418Z,0.80
2022-08-23T09:31:08.296Z,0.90
2022-08-23T09:33:42.279Z,0.80
2022-08-23T09:36:22.959Z,0.82
2022-08-23T09:38:56.542Z,0.85
2022-08-23T09:41:27.858Z,0.90
2022-08-23T09:43:59.228Z,1.10
2022-08-23T09:46:30.295Z,1.00
2022-08-23T09:49:18.468Z,1.05
2022-08-23T09:51:46.130Z,0.85
2022-08-23T09:54:33.664Z,0.73
2022-08-23T09:57:10.444Z,0.80
2022-08-23T09:59:45.331Z,1.10
2022-08-23T10:02:17.264Z,0.90
2022-08-23T10:04:56.940Z,0.80
2022-08-23T10:07:40.358Z,1.00
2022-08-23T10:10:38.123Z,0.82
2022-08-23T10:13:09.038Z,0.82
2022-08-23T10:16:08.222Z,0.73
2022-08-23T10:19:15.972Z,0.80
2022-08-23T10:22:03.805Z,0.57
2022-08-23T10:24:43.251Z,0.60
2022-08-23T10:27:44.674Z,0.60
2022-08-23T10:30:22.070Z,0.80
2022-08-23T10:32:59.460Z,0.52
2022-08-23T10:35:45.813Z,0.98
2022-08-23T10:38:37.791Z,0.90
2022-08-23T10:41:55.374Z,0.80
2022-08-23T10:44:36.724Z,0.60
2022-08-23T10:47:27.426Z,0.70
2022-08-23T10:49:56.847Z,0.90
2022-08-23T10:52:31.156Z,0.73
2022-08-23T10:55:17.056Z,0.70
2022-08-23T10:57:48.935Z,1.00
2022-08-23T11:00:23.458Z,0.70
2022-08-23T11:03:37.492Z,0.80
2022-08-23T11:09:05.172Z,0.80
2022-08-23T11:11:34.287Z,0.50
2022-08-23T11:14:03.686Z,0.70
2022-08-23T11:16:35.065Z,0.47
2022-08-23T11:19:03.909Z,0.57
2022-08-23T11:21:48.912Z,0.60
2022-08-23T11:24:16.470Z,0.70
2022-08-23T11:26:46.596Z,0.35
2022-08-23T11:29:25.384Z,0.40
2022-08-23T11:32:14.218Z,0.50
2022-08-23T11:34:51.737Z,0.50
2022-08-23T11:37:18.989Z,0.43
2022-08-23T11:39:58.702Z,0.50
2022-08-23T11:42:52.072Z,0.70
2022-08-23T11:45:44.703Z,0.60
2022-08-23T11:48:29.490Z,0.52
2022-08-23T11:51:25.839Z,0.38
2022-08-23T11:54:15.855Z,0.75
2022-08-23T11:57:00.368Z,0.60
2022-08-23T12:00:08.567Z,0.70
2022-08-23T12:02:40.873Z,0.60
2022-08-23T12:05:43.211Z,0.52
2022-08-23T12:08:28.506Z,0.68
2022-08-23T12:11:05.227Z,0.30
2022-08-23T12:13:46.647Z,0.52
2022-08-23T12:16:24.164Z,0.43
2022-08-23T12:18:55.458Z,0.40
2022-08-23T12:21:50.387Z,0.50
2022-08-23T12:24:30.750Z,0.50
2022-08-23T12:27:17.805Z,0.40
2022-08-23T12:30:02.851Z,0.50
2022-08-23T12:32:58.596Z,0.52
2022-08-23T12:35:34.724Z,0.68
2022-08-23T12:38:33.169Z,0.50
2022-08-23T12:41:29.592Z,0.50
2022-08-23T12:44:08.874Z,0.40
2022-08-23T12:46:40.990Z,0.40
2022-08-23T12:49:12.575Z,0.60
2022-08-23T12:51:48.568Z,0.40
2022-08-23T12:54:20.048Z,0.40
2022-08-23T12:56:54.438Z,0.40
2022-08-23T12:59:37.757Z,0.40
2022-08-23T13:04:41.291Z,0.50
2022-08-23T13:07:15.198Z,0.60
2022-08-23T13:09:43.793Z,0.60
2022-08-23T13:12:23.403Z,0.52
2022-08-23T13:14:54.196Z,0.40
2022-08-23T13:17:27.859Z,0.50
2022-08-23T13:20:21.797Z,0.50
2022-08-23T13:23:05.557Z,0.40
2022-08-23T13:25:41.690Z,0.38
2022-08-23T13:28:27.533Z,0.30
2022-08-23T13:31:08.415Z,0.32
2022-08-23T13:33:36.526Z,0.38
2022-08-23T13:36:13.386Z,0.50
2022-08-23T13:38:42.926Z,0.40
2022-08-23T13:41:28.073Z,0.40
2022-08-23T13:43:57.772Z,0.50
2022-08-23T13:46:32.656Z,0.43
2022-08-23T13:49:25.141Z,0.50
2022-08-23T13:52:41.627Z,0.50
2022-08-23T13:54:58.304Z,0.50
2022-08-23T13:57:29.589Z,0.50
2022-08-23T14:00:00.451Z,0.50
2022-08-23T14:02:29.480Z,0.70
2022-08-23T14:04:59.393Z,0.90
2022-08-23T14:07:29.002Z,0.40
2022-08-23T14:09:59.794Z,0.50
2022-08-23T14:12:30.660Z,0.40
2022-08-23T14:14:59.075Z,0.50
2022-08-23T14:17:31.926Z,0.40
2022-08-23T14:22:47.373Z,0.52
2022-08-23T14:25:15.603Z,0.50
2022-08-23T14:27:48.916Z,0.40
2022-08-23T14:30:29.377Z,0.50
2022-08-23T14:32:57.804Z,0.43
2022-08-23T14:35:28.252Z,0.45
2022-08-23T14:38:03.768Z,0.63
2022-08-23T14:40:31.650Z,0.50
2022-08-23T14:42:59.085Z,0.40
2022-08-23T14:45:27.322Z,0.38
2022-08-23T14:47:54.605Z,0.50
2022-08-23T14:50:22.416Z,0.50
2022-08-23T14:52:49.946Z,0.30
2022-08-23T14:55:17.369Z,0.50
2022-08-23T14:57:44.711Z,0.50
2022-08-23T15:00:16.176Z,0.55
2022-08-23T15:02:45.614Z,0.45
2022-08-23T15:05:15.962Z,0.30
2022-08-23T15:07:44.105Z,0.73
2022-08-23T15:13:20.429Z,0.55
2022-08-23T15:15:49.646Z,0.65
2022-08-23T15:18:18.539Z,0.60
2022-08-23T15:20:46.923Z,0.38
2022-08-23T15:23:14.528Z,0.50
2022-08-23T15:25:44.508Z,0.47
2022-08-23T15:28:15.993Z,0.60
2022-08-23T15:30:46.809Z,0.50
2022-08-23T15:33:23.408Z,0.60
2022-08-23T15:35:57.907Z,0.47
2022-08-23T15:38:30.227Z,0.57
2022-08-23T15:40:58.086Z,0.50
2022-08-23T15:43:34.059Z,0.50
2022-08-23T15:46:20.533Z,0.55
2022-08-23T15:48:55.958Z,0.50
2022-08-23T15:51:24.168Z,0.88
2022-08-23T15:53:52.616Z,0.40
2022-08-23T15:56:24.872Z,0.47
2022-08-23T15:58:53.967Z,0.60
2022-08-23T16:01:25.616Z,0.50
2022-08-23T16:03:53.110Z,0.70
2022-08-23T16:06:20.462Z,0.50
2022-08-23T16:08:53.979Z,0.60
2022-08-23T16:11:22.368Z,0.52
2022-08-23T16:13:55.119Z,0.50
2022-08-23T16:16:30.244Z,0.45
2022-08-23T16:18:59.124Z,0.50
2022-08-23T16:21:30.643Z,0.60
2022-08-23T16:24:00.496Z,0.60
2022-08-23T16:26:34.939Z,0.60
2022-08-23T16:29:08.359Z,0.50
2022-08-23T16:31:39.243Z,0.57
2022-08-23T16:34:10.220Z,0.43
2022-08-23T16:36:40.698Z,0.60
2022-08-23T16:39:09.085Z,0.60
2022-08-23T16:41:36.378Z,0.50
2022-08-23T16:44:06.493Z,0.60
2022-08-23T16:46:35.343Z,0.50
2022-08-23T16:49:03.221Z,0.50
2022-08-23T16:51:30.506Z,0.47
2022-08-23T16:54:02.209Z,0.50
2022-08-23T16:56:34.404Z,0.43
2022-08-23T16:59:04.154Z,0.60
2022-08-23T17:01:58.649Z,0.60
2022-08-23T17:04:30.453Z,0.60
2022-08-23T17:07:00.848Z,0.60
2022-08-23T17:09:31.017Z,0.60
2022-08-23T17:11:58.628Z,0.63
2022-08-23T17:14:26.468Z,0.50
2022-08-23T17:16:55.902Z,0.65
2022-08-23T17:19:23.322Z,0.57
2022-08-23T17:21:50.835Z,0.60
2022-08-23T17:24:20.309Z,0.68
2022-08-23T17:26:48.695Z,0.75
2022-08-23T17:29:16.196Z,0.90
2022-08-23T17:31:47.635Z,0.70
2022-08-23T17:34:14.940Z,0.60
2022-08-23T17:36:51.834Z,0.50
2022-08-23T17:39:22.347Z,0.70
2022-08-23T17:41:50.198Z,0.68
2022-08-23T17:44:17.792Z,0.80
2022-08-23T17:46:45.847Z,0.90
2022-08-23T17:49:15.152Z,0.80
2022-08-23T17:51:45.524Z,0.70
2022-08-23T17:54:15.838Z,0.70
2022-08-23T17:56:49.914Z,0.70
2022-08-23T17:59:19.384Z,0.90
2022-08-23T18:01:49.367Z,0.80
2022-08-23T18:04:19.814Z,0.80
2022-08-23T18:06:49.861Z,0.55
2022-08-23T18:09:19.874Z,0.70
2022-08-23T18:11:48.044Z,0.80
2022-08-23T18:14:15.804Z,0.70
2022-08-23T18:16:45.798Z,0.70
2022-08-23T18:19:16.036Z,0.98
2022-08-23T18:21:49.257Z,0.88
2022-08-23T18:27:07.459Z,0.80
2022-08-23T18:29:37.249Z,0.70
2022-08-23T18:32:07.132Z,0.80
2022-08-23T18:34:35.445Z,0.70
2022-08-23T18:37:03.702Z,0.90
2022-08-23T18:39:32.313Z,0.75
2022-08-23T18:42:05.231Z,1.00
2022-08-23T18:44:32.827Z,0.93
2022-08-23T18:47:02.200Z,0.80
2022-08-23T18:49:31.619Z,0.90
2022-08-23T18:51:59.198Z,0.95
2022-08-23T18:54:28.921Z,0.98
2022-08-23T18:57:00.618Z,0.73
2022-08-23T18:59:27.975Z,0.90
2022-08-23T19:01:55.912Z,0.90
2022-08-23T19:04:25.959Z,0.90
2022-08-23T19:06:56.984Z,1.10
2022-08-23T19:09:24.801Z,0.68
2022-08-23T19:11:52.089Z,0.90
2022-08-23T19:14:21.976Z,0.90
2022-08-23T19:16:49.925Z,0.80
2022-08-23T19:19:18.690Z,0.80
2022-08-23T19:21:46.122Z,0.77
2022-08-23T19:24:13.697Z,0.55
2022-08-23T19:26:44.476Z,0.90
2022-08-23T19:29:11.980Z,0.80
2022-08-23T19:31:44.163Z,1.10
2022-08-23T19:34:12.780Z,0.90
2022-08-23T19:36:46.835Z,0.93
2022-08-23T19:39:17.827Z,0.90
2022-08-23T19:41:46.259Z,0.93
2022-08-23T19:44:13.570Z,0.85
2022-08-23T19:46:46.024Z,1.10
2022-08-23T19:49:14.639Z,1.13
2022-08-23T19:51:45.742Z,1.08
2022-08-23T19:54:13.220Z,1.25
2022-08-23T19:56:43.466Z,0.90
2022-08-23T19:59:22.923Z,1.10
2022-08-23T20:01:52.272Z,1.52
2022-08-23T20:04:23.354Z,1.13
2022-08-23T20:06:51.115Z,0.98
2022-08-23T20:09:20.882Z,1.05
2022-08-23T20:11:49.486Z,1.10
2022-08-23T20:14:16.775Z,1.10
2022-08-23T20:16:46.897Z,1.00
2022-08-23T20:19:14.917Z,1.13
2022-08-23T20:21:42.781Z,0.77
2022-08-23T20:24:15.276Z,0.90
2022-08-23T20:26:48.605Z,1.00
2022-08-23T20:32:05.999Z,1.10
2022-08-23T20:34:38.210Z,1.17
2022-08-23T20:37:07.470Z,0.90
2022-08-23T20:39:35.193Z,1.10
2022-08-23T20:42:02.534Z,1.05
2022-08-23T20:44:30.522Z,1.00
2022-08-23T20:47:02.834Z,1.10
2022-08-23T20:49:30.982Z,0.98
2022-08-23T20:51:59.622Z,1.38
2022-08-23T20:54:28.016Z,1.40
2022-08-23T20:56:58.546Z,1.08
2022-08-23T20:59:30.624Z,1.00
2022-08-23T21:01:59.130Z,1.10
2022-08-23T21:04:29.982Z,1.25
2022-08-23T21:06:57.953Z,1.20
2022-08-23T21:09:29.093Z,1.00
2022-08-23T21:11:57.730Z,1.45
2022-08-23T21:14:25.928Z,1.67
2022-08-23T21:16:53.908Z,1.70
2022-08-23T21:19:24.290Z,1.45
2022-08-23T21:21:52.062Z,1.63
2022-08-23T21:24:19.846Z,1.40
2022-08-23T21:26:47.249Z,1.45
2022-08-23T21:29:16.734Z,1.40
2022-08-23T21:31:44.472Z,1.20
2022-08-23T21:34:18.384Z,1.48
2022-08-23T21:36:48.197Z,1.20
2022-08-23T21:39:15.457Z,1.20
2022-08-23T21:41:45.777Z,1.60
2022-08-23T21:44:15.987Z,1.30
2022-08-23T21:46:45.125Z,1.50
2022-08-23T21:49:13.211Z,1.27
2022-08-23T21:51:41.954Z,1.60
2022-08-23T21:54:13.153Z,1.50
2022-08-23T21:56:43.824Z,1.50
2022-08-23T21:59:14.332Z,1.48
2022-08-23T22:01:42.789Z,1.38
2022-08-23T22:04:13.220Z,1.40
2022-08-23T22:06:44.619Z,1.42
2022-08-23T22:09:19.481Z,1.40
2022-08-23T22:11:49.369Z,1.30
2022-08-23T22:14:24.932Z,1.50
2022-08-23T22:16:59.199Z,1.40
2022-08-23T22:19:26.518Z,1.42
2022-08-23T22:21:54.253Z,1.45
2022-08-23T22:24:26.500Z,1.52
2022-08-23T22:26:57.325Z,1.25
2022-08-23T22:29:26.860Z,1.50
2022-08-23T22:31:54.328Z,1.48
2022-08-23T22:34:21.662Z,1.45
2022-08-23T22:36:51.626Z,1.55
2022-08-23T22:39:23.180Z,1.60
2022-08-23T22:41:54.135Z,1.80
2022-08-23T22:44:21.900Z,1.40
2022-08-23T22:46:51.258Z,1.48
2022-08-23T22:49:19.002Z,1.42
2022-08-23T22:51:46.859Z,1.67
2022-08-23T22:54:19.796Z,2.00
2022-08-23T22:56:52.718Z,1.50
2022-08-23T22:59:27.411Z,1.65
2022-08-23T23:01:57.872Z,1.50
2022-08-23T23:04:26.969Z,1.52
2022-08-23T23:06:55.635Z,1.60
2022-08-23T23:09:24.133Z,1.60
2022-08-23T23:11:52.892Z,1.63
2022-08-23T23:14:21.794Z,1.92
2022-08-23T23:16:53.342Z,1.63
2022-08-23T23:19:39.784Z,1.80
2022-08-23T23:22:10.199Z,1.73
2022-08-23T23:24:42.886Z,1.80
2022-08-23T23:27:10.137Z,1.85
2022-08-23T23:29:38.590Z,2.03
2022-08-23T23:32:08.588Z,1.67
2022-08-23T23:34:37.935Z,1.77
2022-08-23T23:37:05.342Z,1.58
2022-08-23T23:39:33.042Z,1.90
2022-08-23T23:42:00.339Z,1.40
2022-08-23T23:44:31.621Z,1.58
2022-08-23T23:47:01.455Z,1.45
2022-08-23T23:49:32.252Z,2.00
2022-08-23T23:52:05.390Z,1.70
2022-08-23T23:54:35.502Z,1.83
2022-08-23T23:57:04.072Z,1.73
2022-08-23T23:59:34.129Z,1.90
